SBPV/PVH METAR and TAF weather

Enter ICAO airport designator
Station Type Date Time Source
SBPV METAR UTC NOAA

Error!


Station Type Date Time Source
SBPV Decoded METAR UTC NOAA

Porto Velho Aeroporto , Brazil (SBPV) 08-46S 063-55W 102M
Apr 19, 2019 - 06:00 AM EDT / 2019.04.19 1000 UTC
Wind: from the NNE (020 degrees) at 1 MPH (1 KT):0
Visibility: greater than 7 mile(s):0
Sky conditions: partly cloudy
Temperature: 77 F (25 C)
Dew Point: 73 F (23 C)
Relative Humidity: 88%
Pressure (altimeter): 29.83 in. Hg (1010 hPa)
ob: SBPV 191000Z 02001KT 9999 FEW005 SCT100 25/23 Q1010
cycle: 10

Station Type Date Time Source
SBPV TAF 2019/04/19 12:39 UTC NOAA

TAF SBPV 191000Z 1912/2012 02005KT FEW020 TX29/1918Z TN24/2008Z
BECMG 1916/1918 SCT025 FEW030TCU
BECMG 2000/2002 04004KT 9999 FEW025
RMK PEM

Example: see airport list